sensor_id;sensor_type;location;lat;lon;timestamp;P1;durP1;ratioP1;P2;durP2;ratioP2
74799;SDS011;63326;45.088;7.658;2023-12-28T00:02:09;12.73;;;8.48;;
74799;SDS011;63326;45.088;7.658;2023-12-28T00:04:35;16.50;;;10.95;;
74799;SDS011;63326;45.088;7.658;2023-12-28T00:07:02;16.85;;;9.60;;
74799;SDS011;63326;45.088;7.658;2023-12-28T00:09:29;19.30;;;10.48;;
74799;SDS011;63326;45.088;7.658;2023-12-28T00:11:56;17.25;;;9.80;;
74799;SDS011;63326;45.088;7.658;2023-12-28T00:14:23;20.33;;;9.95;;
74799;SDS011;63326;45.088;7.658;2023-12-28T00:16:49;21.42;;;10.45;;
74799;SDS011;63326;45.088;7.658;2023-12-28T00:19:16;16.77;;;8.95;;
74799;SDS011;63326;45.088;7.658;2023-12-28T00:21:43;16.65;;;10.73;;
74799;SDS011;63326;45.088;7.658;2023-12-28T00:24:10;15.93;;;10.30;;
74799;SDS011;63326;45.088;7.658;2023-12-28T00:26:37;18.85;;;10.02;;
74799;SDS011;63326;45.088;7.658;2023-12-28T00:29:05;19.42;;;10.70;;
74799;SDS011;63326;45.088;7.658;2023-12-28T00:31:32;19.02;;;11.18;;
74799;SDS011;63326;45.088;7.658;2023-12-28T00:33:59;19.83;;;11.60;;
74799;SDS011;63326;45.088;7.658;2023-12-28T00:36:26;15.77;;;10.77;;
74799;SDS011;63326;45.088;7.658;2023-12-28T00:38:52;16.13;;;9.75;;
74799;SDS011;63326;45.088;7.658;2023-12-28T00:41:19;14.55;;;9.20;;
74799;SDS011;63326;45.088;7.658;2023-12-28T00:43:47;19.15;;;9.05;;
74799;SDS011;63326;45.088;7.658;2023-12-28T00:46:14;25.08;;;12.05;;
74799;SDS011;63326;45.088;7.658;2023-12-28T00:48:40;19.30;;;10.10;;
74799;SDS011;63326;45.088;7.658;2023-12-28T00:51:07;19.33;;;11.00;;
74799;SDS011;63326;45.088;7.658;2023-12-28T00:53:34;18.33;;;9.52;;
74799;SDS011;63326;45.088;7.658;2023-12-28T00:56:00;18.48;;;10.77;;
74799;SDS011;63326;45.088;7.658;2023-12-28T00:58:27;19.20;;;10.82;;
74799;SDS011;63326;45.088;7.658;2023-12-28T01:00:54;15.82;;;9.68;;
74799;SDS011;63326;45.088;7.658;2023-12-28T01:03:23;22.50;;;11.13;;
74799;SDS011;63326;45.088;7.658;2023-12-28T01:05:51;14.93;;;9.65;;
74799;SDS011;63326;45.088;7.658;2023-12-28T01:08:19;16.00;;;9.32;;
74799;SDS011;63326;45.088;7.658;2023-12-28T01:10:46;19.98;;;11.13;;
74799;SDS011;63326;45.088;7.658;2023-12-28T01:13:13;15.43;;;9.35;;
74799;SDS011;63326;45.088;7.658;2023-12-28T01:15:40;15.95;;;10.77;;
74799;SDS011;63326;45.088;7.658;2023-12-28T01:18:06;14.75;;;9.77;;
74799;SDS011;63326;45.088;7.658;2023-12-28T01:20:33;15.45;;;8.82;;
74799;SDS011;63326;45.088;7.658;2023-12-28T01:23:03;16.20;;;8.93;;
74799;SDS011;63326;45.088;7.658;2023-12-28T01:27:57;16.15;;;9.57;;
74799;SDS011;63326;45.088;7.658;2023-12-28T01:30:24;15.85;;;10.05;;
74799;SDS011;63326;45.088;7.658;2023-12-28T01:32:51;17.70;;;10.20;;
74799;SDS011;63326;45.088;7.658;2023-12-28T01:35:18;17.50;;;9.45;;
74799;SDS011;63326;45.088;7.658;2023-12-28T01:37:44;26.08;;;10.73;;
74799;SDS011;63326;45.088;7.658;2023-12-28T01:40:11;23.92;;;11.88;;
74799;SDS011;63326;45.088;7.658;2023-12-28T01:42:38;21.48;;;11.20;;
74799;SDS011;63326;45.088;7.658;2023-12-28T01:45:05;19.15;;;10.18;;
74799;SDS011;63326;45.088;7.658;2023-12-28T01:47:32;18.85;;;11.38;;
74799;SDS011;63326;45.088;7.658;2023-12-28T01:49:59;16.45;;;10.82;;
74799;SDS011;63326;45.088;7.658;2023-12-28T01:52:27;15.85;;;11.15;;
74799;SDS011;63326;45.088;7.658;2023-12-28T01:54:54;14.48;;;9.25;;
74799;SDS011;63326;45.088;7.658;2023-12-28T01:57:22;14.80;;;11.23;;
74799;SDS011;63326;45.088;7.658;2023-12-28T01:59:49;16.00;;;10.50;;
74799;SDS011;63326;45.088;7.658;2023-12-28T02:02:17;15.60;;;8.40;;
74799;SDS011;63326;45.088;7.658;2023-12-28T02:04:44;16.55;;;8.23;;
74799;SDS011;63326;45.088;7.658;2023-12-28T02:07:11;16.63;;;9.73;;
74799;SDS011;63326;45.088;7.658;2023-12-28T02:12:06;16.50;;;7.82;;
74799;SDS011;63326;45.088;7.658;2023-12-28T02:14:33;18.38;;;10.80;;
74799;SDS011;63326;45.088;7.658;2023-12-28T02:17:04;19.90;;;9.18;;
74799;SDS011;63326;45.088;7.658;2023-12-28T02:19:45;21.85;;;10.80;;
74799;SDS011;63326;45.088;7.658;2023-12-28T02:22:16;19.80;;;10.75;;
74799;SDS011;63326;45.088;7.658;2023-12-28T02:27:28;26.20;;;11.68;;
74799;SDS011;63326;45.088;7.658;2023-12-28T02:29:55;24.77;;;11.38;;
74799;SDS011;63326;45.088;7.658;2023-12-28T02:32:26;24.48;;;11.50;;
74799;SDS011;63326;45.088;7.658;2023-12-28T02:35:00;18.85;;;11.50;;
74799;SDS011;63326;45.088;7.658;2023-12-28T02:37:33;25.63;;;11.38;;
74799;SDS011;63326;45.088;7.658;2023-12-28T02:40:01;16.77;;;10.98;;
74799;SDS011;63326;45.088;7.658;2023-12-28T02:42:28;21.30;;;11.88;;
74799;SDS011;63326;45.088;7.658;2023-12-28T02:44:55;21.10;;;11.02;;
74799;SDS011;63326;45.088;7.658;2023-12-28T02:47:22;22.25;;;12.50;;
74799;SDS011;63326;45.088;7.658;2023-12-28T02:49:48;18.20;;;9.43;;
74799;SDS011;63326;45.088;7.658;2023-12-28T02:52:15;22.67;;;12.23;;
74799;SDS011;63326;45.088;7.658;2023-12-28T02:54:42;18.45;;;10.70;;
74799;SDS011;63326;45.088;7.658;2023-12-28T02:57:08;22.40;;;12.13;;
74799;SDS011;63326;45.088;7.658;2023-12-28T02:59:35;18.55;;;10.32;;
74799;SDS011;63326;45.088;7.658;2023-12-28T03:02:02;19.08;;;11.23;;
74799;SDS011;63326;45.088;7.658;2023-12-28T03:04:28;18.70;;;11.00;;
74799;SDS011;63326;45.088;7.658;2023-12-28T03:06:55;22.10;;;10.10;;
74799;SDS011;63326;45.088;7.658;2023-12-28T03:09:22;15.82;;;10.57;;
74799;SDS011;63326;45.088;7.658;2023-12-28T03:11:49;17.30;;;9.45;;
74799;SDS011;63326;45.088;7.658;2023-12-28T03:14:15;15.52;;;10.23;;
74799;SDS011;63326;45.088;7.658;2023-12-28T03:16:42;22.40;;;11.65;;
74799;SDS011;63326;45.088;7.658;2023-12-28T03:19:09;17.92;;;11.23;;
74799;SDS011;63326;45.088;7.658;2023-12-28T03:21:39;16.27;;;10.43;;
74799;SDS011;63326;45.088;7.658;2023-12-28T03:24:07;22.38;;;11.50;;
74799;SDS011;63326;45.088;7.658;2023-12-28T03:26:37;16.33;;;9.98;;
74799;SDS011;63326;45.088;7.658;2023-12-28T03:29:07;23.83;;;12.27;;
74799;SDS011;63326;45.088;7.658;2023-12-28T03:31:38;16.58;;;10.38;;
74799;SDS011;63326;45.088;7.658;2023-12-28T03:34:06;19.25;;;11.77;;
74799;SDS011;63326;45.088;7.658;2023-12-28T03:36:34;17.27;;;10.50;;
74799;SDS011;63326;45.088;7.658;2023-12-28T03:39:01;18.85;;;12.10;;
74799;SDS011;63326;45.088;7.658;2023-12-28T03:41:29;17.98;;;10.20;;
74799;SDS011;63326;45.088;7.658;2023-12-28T03:43:56;19.80;;;11.35;;
74799;SDS011;63326;45.088;7.658;2023-12-28T03:46:23;16.45;;;10.27;;
74799;SDS011;63326;45.088;7.658;2023-12-28T03:48:50;19.48;;;11.27;;
74799;SDS011;63326;45.088;7.658;2023-12-28T03:51:17;17.70;;;11.40;;
74799;SDS011;63326;45.088;7.658;2023-12-28T03:53:44;19.85;;;10.10;;
74799;SDS011;63326;45.088;7.658;2023-12-28T03:56:18;19.02;;;11.40;;
74799;SDS011;63326;45.088;7.658;2023-12-28T03:58:48;17.52;;;9.70;;
74799;SDS011;63326;45.088;7.658;2023-12-28T04:01:17;19.38;;;10.23;;
74799;SDS011;63326;45.088;7.658;2023-12-28T04:03:44;16.88;;;10.82;;
74799;SDS011;63326;45.088;7.658;2023-12-28T04:06:12;18.83;;;10.95;;
74799;SDS011;63326;45.088;7.658;2023-12-28T04:08:39;19.35;;;11.15;;
74799;SDS011;63326;45.088;7.658;2023-12-28T04:11:07;17.75;;;9.07;;
74799;SDS011;63326;45.088;7.658;2023-12-28T04:13:34;21.67;;;11.20;;
74799;SDS011;63326;45.088;7.658;2023-12-28T04:16:01;19.10;;;10.75;;
74799;SDS011;63326;45.088;7.658;2023-12-28T04:18:28;19.05;;;11.25;;
74799;SDS011;63326;45.088;7.658;2023-12-28T04:20:55;24.75;;;13.00;;
74799;SDS011;63326;45.088;7.658;2023-12-28T04:23:22;17.00;;;10.63;;
74799;SDS011;63326;45.088;7.658;2023-12-28T04:25:48;16.85;;;10.10;;
74799;SDS011;63326;45.088;7.658;2023-12-28T04:28:15;15.98;;;10.13;;
74799;SDS011;63326;45.088;7.658;2023-12-28T04:30:42;21.05;;;9.98;;
74799;SDS011;63326;45.088;7.658;2023-12-28T04:33:09;19.58;;;12.05;;
74799;SDS011;63326;45.088;7.658;2023-12-28T04:35:36;18.15;;;10.02;;
74799;SDS011;63326;45.088;7.658;2023-12-28T04:38:03;19.38;;;10.05;;
74799;SDS011;63326;45.088;7.658;2023-12-28T04:40:30;20.17;;;11.57;;
74799;SDS011;63326;45.088;7.658;2023-12-28T04:42:57;21.83;;;10.82;;
74799;SDS011;63326;45.088;7.658;2023-12-28T04:45:24;20.92;;;10.32;;
74799;SDS011;63326;45.088;7.658;2023-12-28T04:47:51;21.50;;;12.07;;
74799;SDS011;63326;45.088;7.658;2023-12-28T04:50:17;21.05;;;11.30;;
74799;SDS011;63326;45.088;7.658;2023-12-28T04:52:44;23.27;;;12.85;;
74799;SDS011;63326;45.088;7.658;2023-12-28T04:55:11;18.08;;;11.32;;
74799;SDS011;63326;45.088;7.658;2023-12-28T04:57:37;19.50;;;11.40;;
74799;SDS011;63326;45.088;7.658;2023-12-28T05:00:04;19.75;;;11.23;;
74799;SDS011;63326;45.088;7.658;2023-12-28T05:02:32;21.13;;;11.18;;
74799;SDS011;63326;45.088;7.658;2023-12-28T05:05:00;20.63;;;12.63;;
74799;SDS011;63326;45.088;7.658;2023-12-28T05:07:27;17.02;;;12.25;;
74799;SDS011;63326;45.088;7.658;2023-12-28T05:09:53;18.20;;;10.00;;
74799;SDS011;63326;45.088;7.658;2023-12-28T05:12:20;20.63;;;11.77;;
74799;SDS011;63326;45.088;7.658;2023-12-28T05:14:48;19.58;;;10.77;;
74799;SDS011;63326;45.088;7.658;2023-12-28T05:17:14;16.75;;;9.95;;
74799;SDS011;63326;45.088;7.658;2023-12-28T05:19:41;21.13;;;11.75;;
74799;SDS011;63326;45.088;7.658;2023-12-28T05:22:08;15.82;;;11.10;;
74799;SDS011;63326;45.088;7.658;2023-12-28T05:24:37;21.02;;;12.15;;
74799;SDS011;63326;45.088;7.658;2023-12-28T05:27:04;17.67;;;11.15;;
74799;SDS011;63326;45.088;7.658;2023-12-28T05:29:30;18.23;;;9.82;;
74799;SDS011;63326;45.088;7.658;2023-12-28T05:31:57;17.73;;;10.57;;
74799;SDS011;63326;45.088;7.658;2023-12-28T05:34:24;17.25;;;11.05;;
74799;SDS011;63326;45.088;7.658;2023-12-28T05:36:51;22.27;;;11.50;;
74799;SDS011;63326;45.088;7.658;2023-12-28T05:39:18;19.00;;;10.20;;
74799;SDS011;63326;45.088;7.658;2023-12-28T05:41:45;19.67;;;8.55;;
74799;SDS011;63326;45.088;7.658;2023-12-28T05:44:14;19.77;;;10.32;;
74799;SDS011;63326;45.088;7.658;2023-12-28T05:46:40;15.93;;;10.02;;
74799;SDS011;63326;45.088;7.658;2023-12-28T05:49:07;17.67;;;11.38;;
74799;SDS011;63326;45.088;7.658;2023-12-28T05:51:41;22.98;;;11.98;;
74799;SDS011;63326;45.088;7.658;2023-12-28T05:54:08;24.15;;;13.57;;
74799;SDS011;63326;45.088;7.658;2023-12-28T05:56:35;22.05;;;12.68;;
74799;SDS011;63326;45.088;7.658;2023-12-28T05:59:02;22.48;;;13.05;;
74799;SDS011;63326;45.088;7.658;2023-12-28T06:01:29;33.30;;;14.57;;
74799;SDS011;63326;45.088;7.658;2023-12-28T06:03:56;25.30;;;13.25;;
74799;SDS011;63326;45.088;7.658;2023-12-28T06:06:22;22.88;;;12.25;;
74799;SDS011;63326;45.088;7.658;2023-12-28T06:08:49;18.92;;;12.07;;
74799;SDS011;63326;45.088;7.658;2023-12-28T06:11:17;23.40;;;13.48;;
74799;SDS011;63326;45.088;7.658;2023-12-28T06:13:44;17.70;;;12.48;;
74799;SDS011;63326;45.088;7.658;2023-12-28T06:16:11;24.95;;;13.82;;
74799;SDS011;63326;45.088;7.658;2023-12-28T06:18:38;17.85;;;11.55;;
74799;SDS011;63326;45.088;7.658;2023-12-28T06:21:05;23.17;;;11.80;;
74799;SDS011;63326;45.088;7.658;2023-12-28T06:23:32;19.00;;;10.98;;
74799;SDS011;63326;45.088;7.658;2023-12-28T06:26:03;18.13;;;11.60;;
74799;SDS011;63326;45.088;7.658;2023-12-28T06:28:31;20.45;;;11.70;;
74799;SDS011;63326;45.088;7.658;2023-12-28T06:30:58;25.95;;;14.05;;
74799;SDS011;63326;45.088;7.658;2023-12-28T06:33:30;14.63;;;11.18;;
74799;SDS011;63326;45.088;7.658;2023-12-28T06:35:57;19.77;;;11.85;;
74799;SDS011;63326;45.088;7.658;2023-12-28T06:38:26;14.95;;;10.30;;
74799;SDS011;63326;45.088;7.658;2023-12-28T06:40:53;23.05;;;12.32;;
74799;SDS011;63326;45.088;7.658;2023-12-28T06:43:20;19.08;;;10.50;;
74799;SDS011;63326;45.088;7.658;2023-12-28T06:45:46;21.27;;;13.50;;
74799;SDS011;63326;45.088;7.658;2023-12-28T06:48:13;18.33;;;11.65;;
74799;SDS011;63326;45.088;7.658;2023-12-28T06:50:40;17.85;;;10.82;;
74799;SDS011;63326;45.088;7.658;2023-12-28T06:53:07;21.27;;;11.63;;
74799;SDS011;63326;45.088;7.658;2023-12-28T06:55:33;17.77;;;11.10;;
74799;SDS011;63326;45.088;7.658;2023-12-28T06:58:00;20.30;;;13.48;;
74799;SDS011;63326;45.088;7.658;2023-12-28T07:00:28;23.00;;;12.15;;
74799;SDS011;63326;45.088;7.658;2023-12-28T07:02:55;17.30;;;11.60;;
74799;SDS011;63326;45.088;7.658;2023-12-28T07:05:21;19.88;;;10.93;;
74799;SDS011;63326;45.088;7.658;2023-12-28T07:07:48;20.48;;;11.50;;
74799;SDS011;63326;45.088;7.658;2023-12-28T07:10:15;21.80;;;11.73;;
74799;SDS011;63326;45.088;7.658;2023-12-28T07:12:42;23.35;;;9.82;;
74799;SDS011;63326;45.088;7.658;2023-12-28T07:15:09;23.55;;;12.05;;
74799;SDS011;63326;45.088;7.658;2023-12-28T07:17:40;18.20;;;12.38;;
74799;SDS011;63326;45.088;7.658;2023-12-28T07:20:07;27.88;;;12.38;;
74799;SDS011;63326;45.088;7.658;2023-12-28T07:22:37;19.80;;;10.80;;
74799;SDS011;63326;45.088;7.658;2023-12-28T07:25:05;16.30;;;11.68;;
74799;SDS011;63326;45.088;7.658;2023-12-28T07:27:33;19.02;;;11.82;;
74799;SDS011;63326;45.088;7.658;2023-12-28T07:30:01;22.38;;;11.52;;
74799;SDS011;63326;45.088;7.658;2023-12-28T07:32:31;22.70;;;11.45;;
74799;SDS011;63326;45.088;7.658;2023-12-28T07:34:58;17.45;;;11.45;;
74799;SDS011;63326;45.088;7.658;2023-12-28T07:37:25;18.63;;;11.38;;
74799;SDS011;63326;45.088;7.658;2023-12-28T07:39:52;20.90;;;11.98;;
74799;SDS011;63326;45.088;7.658;2023-12-28T07:42:19;19.80;;;11.00;;
74799;SDS011;63326;45.088;7.658;2023-12-28T07:44:46;24.20;;;12.57;;
74799;SDS011;63326;45.088;7.658;2023-12-28T07:47:13;21.58;;;12.27;;
74799;SDS011;63326;45.088;7.658;2023-12-28T07:49:40;20.25;;;12.48;;
74799;SDS011;63326;45.088;7.658;2023-12-28T07:52:07;21.02;;;11.45;;
74799;SDS011;63326;45.088;7.658;2023-12-28T07:54:35;19.38;;;11.88;;
74799;SDS011;63326;45.088;7.658;2023-12-28T07:57:02;21.55;;;11.05;;
74799;SDS011;63326;45.088;7.658;2023-12-28T07:59:28;21.67;;;11.60;;
74799;SDS011;63326;45.088;7.658;2023-12-28T08:01:56;23.65;;;12.48;;
74799;SDS011;63326;45.088;7.658;2023-12-28T08:04:23;21.50;;;12.63;;
74799;SDS011;63326;45.088;7.658;2023-12-28T08:06:50;23.58;;;12.75;;
74799;SDS011;63326;45.088;7.658;2023-12-28T08:09:16;21.58;;;12.07;;
74799;SDS011;63326;45.088;7.658;2023-12-28T08:11:43;20.55;;;12.57;;
74799;SDS011;63326;45.088;7.658;2023-12-28T08:14:10;25.65;;;13.32;;
74799;SDS011;63326;45.088;7.658;2023-12-28T08:16:36;19.98;;;11.93;;
74799;SDS011;63326;45.088;7.658;2023-12-28T08:19:03;21.15;;;11.77;;
74799;SDS011;63326;45.088;7.658;2023-12-28T08:21:31;24.23;;;12.18;;
74799;SDS011;63326;45.088;7.658;2023-12-28T08:23:57;19.70;;;11.93;;
74799;SDS011;63326;45.088;7.658;2023-12-28T08:26:24;17.98;;;12.57;;
74799;SDS011;63326;45.088;7.658;2023-12-28T08:28:51;17.45;;;11.13;;
74799;SDS011;63326;45.088;7.658;2023-12-28T08:31:18;18.73;;;12.27;;
74799;SDS011;63326;45.088;7.658;2023-12-28T08:33:44;24.25;;;14.85;;
74799;SDS011;63326;45.088;7.658;2023-12-28T08:36:11;23.67;;;14.77;;
74799;SDS011;63326;45.088;7.658;2023-12-28T08:38:38;24.25;;;12.55;;
74799;SDS011;63326;45.088;7.658;2023-12-28T08:41:05;18.67;;;10.93;;
74799;SDS011;63326;45.088;7.658;2023-12-28T08:43:35;27.25;;;11.85;;
74799;SDS011;63326;45.088;7.658;2023-12-28T08:46:03;20.58;;;13.85;;
74799;SDS011;63326;45.088;7.658;2023-12-28T08:48:30;21.42;;;11.32;;
74799;SDS011;63326;45.088;7.658;2023-12-28T08:50:56;17.17;;;10.57;;
74799;SDS011;63326;45.088;7.658;2023-12-28T08:53:23;19.73;;;12.60;;
74799;SDS011;63326;45.088;7.658;2023-12-28T08:55:50;18.98;;;11.43;;
74799;SDS011;63326;45.088;7.658;2023-12-28T08:58:17;19.63;;;11.93;;
74799;SDS011;63326;45.088;7.658;2023-12-28T09:00:44;22.90;;;13.32;;
74799;SDS011;63326;45.088;7.658;2023-12-28T09:03:20;26.80;;;15.57;;
74799;SDS011;63326;45.088;7.658;2023-12-28T09:05:50;21.10;;;14.70;;
74799;SDS011;63326;45.088;7.658;2023-12-28T09:08:17;24.52;;;12.40;;
74799;SDS011;63326;45.088;7.658;2023-12-28T09:10:44;30.10;;;15.48;;
74799;SDS011;63326;45.088;7.658;2023-12-28T09:13:14;25.45;;;15.23;;
74799;SDS011;63326;45.088;7.658;2023-12-28T09:15:43;21.58;;;15.25;;
74799;SDS011;63326;45.088;7.658;2023-12-28T09:18:10;18.67;;;12.55;;
74799;SDS011;63326;45.088;7.658;2023-12-28T09:20:37;24.08;;;13.98;;
74799;SDS011;63326;45.088;7.658;2023-12-28T09:23:04;24.83;;;13.75;;
74799;SDS011;63326;45.088;7.658;2023-12-28T09:25:32;22.75;;;14.95;;
74799;SDS011;63326;45.088;7.658;2023-12-28T09:27:59;23.08;;;13.20;;
74799;SDS011;63326;45.088;7.658;2023-12-28T09:30:26;21.80;;;14.95;;
74799;SDS011;63326;45.088;7.658;2023-12-28T09:32:54;25.13;;;14.45;;
74799;SDS011;63326;45.088;7.658;2023-12-28T09:35:21;23.60;;;14.18;;
74799;SDS011;63326;45.088;7.658;2023-12-28T09:37:47;26.20;;;14.05;;
74799;SDS011;63326;45.088;7.658;2023-12-28T09:40:15;22.58;;;13.73;;
74799;SDS011;63326;45.088;7.658;2023-12-28T09:43:13;23.05;;;13.98;;
74799;SDS011;63326;45.088;7.658;2023-12-28T09:45:31;18.08;;;11.35;;
74799;SDS011;63326;45.088;7.658;2023-12-28T09:47:58;18.85;;;10.80;;
74799;SDS011;63326;45.088;7.658;2023-12-28T09:50:26;18.52;;;11.55;;
74799;SDS011;63326;45.088;7.658;2023-12-28T09:52:55;18.55;;;10.98;;
74799;SDS011;63326;45.088;7.658;2023-12-28T09:55:23;14.18;;;8.85;;
74799;SDS011;63326;45.088;7.658;2023-12-28T09:57:51;15.38;;;8.48;;
74799;SDS011;63326;45.088;7.658;2023-12-28T10:00:20;18.50;;;10.25;;
74799;SDS011;63326;45.088;7.658;2023-12-28T10:02:48;15.95;;;8.98;;
74799;SDS011;63326;45.088;7.658;2023-12-28T10:05:15;13.65;;;8.05;;
74799;SDS011;63326;45.088;7.658;2023-12-28T10:07:43;12.57;;;8.10;;
74799;SDS011;63326;45.088;7.658;2023-12-28T10:10:16;16.80;;;8.10;;
74799;SDS011;63326;45.088;7.658;2023-12-28T10:12:45;15.48;;;8.25;;
74799;SDS011;63326;45.088;7.658;2023-12-28T10:15:13;12.70;;;8.60;;
74799;SDS011;63326;45.088;7.658;2023-12-28T10:17:39;16.13;;;9.07;;
74799;SDS011;63326;45.088;7.658;2023-12-28T10:20:06;11.77;;;7.22;;
74799;SDS011;63326;45.088;7.658;2023-12-28T10:22:36;11.32;;;7.75;;
74799;SDS011;63326;45.088;7.658;2023-12-28T10:25:03;13.40;;;8.23;;
74799;SDS011;63326;45.088;7.658;2023-12-28T10:27:30;16.63;;;8.68;;
74799;SDS011;63326;45.088;7.658;2023-12-28T10:29:58;14.23;;;7.60;;
74799;SDS011;63326;45.088;7.658;2023-12-28T10:32:25;14.18;;;6.55;;
74799;SDS011;63326;45.088;7.658;2023-12-28T10:34:53;13.35;;;6.72;;
74799;SDS011;63326;45.088;7.658;2023-12-28T10:37:21;15.40;;;7.50;;
74799;SDS011;63326;45.088;7.658;2023-12-28T10:39:48;16.45;;;7.57;;
74799;SDS011;63326;45.088;7.658;2023-12-28T10:42:22;12.07;;;7.25;;
74799;SDS011;63326;45.088;7.658;2023-12-28T10:45:04;12.02;;;7.43;;
74799;SDS011;63326;45.088;7.658;2023-12-28T10:47:32;14.27;;;8.02;;
74799;SDS011;63326;45.088;7.658;2023-12-28T10:50:03;13.05;;;7.20;;
74799;SDS011;63326;45.088;7.658;2023-12-28T10:52:32;11.48;;;8.23;;
74799;SDS011;63326;45.088;7.658;2023-12-28T10:55:06;13.30;;;8.27;;
74799;SDS011;63326;45.088;7.658;2023-12-28T10:57:51;12.30;;;7.80;;
74799;SDS011;63326;45.088;7.658;2023-12-28T11:00:26;15.88;;;8.02;;
74799;SDS011;63326;45.088;7.658;2023-12-28T11:03:02;10.63;;;6.53;;
74799;SDS011;63326;45.088;7.658;2023-12-28T11:05:31;18.48;;;9.20;;
74799;SDS011;63326;45.088;7.658;2023-12-28T11:08:00;13.27;;;8.10;;
74799;SDS011;63326;45.088;7.658;2023-12-28T11:10:29;14.70;;;7.85;;
74799;SDS011;63326;45.088;7.658;2023-12-28T11:12:56;12.60;;;6.45;;
74799;SDS011;63326;45.088;7.658;2023-12-28T11:15:24;15.25;;;7.57;;
74799;SDS011;63326;45.088;7.658;2023-12-28T11:17:52;10.23;;;5.93;;
74799;SDS011;63326;45.088;7.658;2023-12-28T11:20:19;11.55;;;6.95;;
74799;SDS011;63326;45.088;7.658;2023-12-28T11:22:47;14.90;;;7.78;;
74799;SDS011;63326;45.088;7.658;2023-12-28T11:25:16;15.85;;;7.55;;
74799;SDS011;63326;45.088;7.658;2023-12-28T11:27:45;14.15;;;8.70;;
74799;SDS011;63326;45.088;7.658;2023-12-28T11:30:15;15.73;;;9.18;;
74799;SDS011;63326;45.088;7.658;2023-12-28T11:32:42;13.90;;;7.88;;
74799;SDS011;63326;45.088;7.658;2023-12-28T11:35:13;15.30;;;8.52;;
74799;SDS011;63326;45.088;7.658;2023-12-28T11:37:42;14.73;;;8.02;;
74799;SDS011;63326;45.088;7.658;2023-12-28T11:40:16;15.00;;;7.68;;
74799;SDS011;63326;45.088;7.658;2023-12-28T11:43:03;12.00;;;8.02;;
74799;SDS011;63326;45.088;7.658;2023-12-28T11:45:31;13.98;;;9.30;;
74799;SDS011;63326;45.088;7.658;2023-12-28T11:47:58;14.90;;;9.40;;
74799;SDS011;63326;45.088;7.658;2023-12-28T11:50:27;17.17;;;9.82;;
74799;SDS011;63326;45.088;7.658;2023-12-28T11:52:53;12.48;;;8.65;;
74799;SDS011;63326;45.088;7.658;2023-12-28T11:55:21;13.20;;;7.60;;
74799;SDS011;63326;45.088;7.658;2023-12-28T11:57:49;12.77;;;8.00;;
74799;SDS011;63326;45.088;7.658;2023-12-28T12:00:16;16.48;;;9.80;;
74799;SDS011;63326;45.088;7.658;2023-12-28T12:02:43;14.43;;;10.27;;
74799;SDS011;63326;45.088;7.658;2023-12-28T12:05:14;15.68;;;9.27;;
74799;SDS011;63326;45.088;7.658;2023-12-28T12:07:41;19.23;;;13.82;;
74799;SDS011;63326;45.088;7.658;2023-12-28T12:10:08;26.05;;;15.75;;
74799;SDS011;63326;45.088;7.658;2023-12-28T12:12:40;23.23;;;13.73;;
74799;SDS011;63326;45.088;7.658;2023-12-28T12:17:35;18.67;;;11.77;;
74799;SDS011;63326;45.088;7.658;2023-12-28T12:20:02;20.95;;;12.45;;
74799;SDS011;63326;45.088;7.658;2023-12-28T12:24:58;19.35;;;13.63;;
74799;SDS011;63326;45.088;7.658;2023-12-28T12:27:30;22.10;;;13.18;;
74799;SDS011;63326;45.088;7.658;2023-12-28T12:29:57;22.58;;;13.70;;
74799;SDS011;63326;45.088;7.658;2023-12-28T12:32:24;26.63;;;15.25;;
74799;SDS011;63326;45.088;7.658;2023-12-28T12:34:51;22.63;;;14.75;;
74799;SDS011;63326;45.088;7.658;2023-12-28T12:37:18;20.88;;;13.60;;
74799;SDS011;63326;45.088;7.658;2023-12-28T12:39:44;20.80;;;12.38;;
74799;SDS011;63326;45.088;7.658;2023-12-28T12:42:14;22.80;;;14.02;;
74799;SDS011;63326;45.088;7.658;2023-12-28T12:44:41;22.30;;;13.05;;
74799;SDS011;63326;45.088;7.658;2023-12-28T12:47:08;22.60;;;14.48;;
74799;SDS011;63326;45.088;7.658;2023-12-28T12:49:35;21.98;;;14.55;;
74799;SDS011;63326;45.088;7.658;2023-12-28T12:52:02;21.52;;;14.43;;
74799;SDS011;63326;45.088;7.658;2023-12-28T12:54:31;25.50;;;14.95;;
74799;SDS011;63326;45.088;7.658;2023-12-28T12:56:58;24.55;;;14.05;;
74799;SDS011;63326;45.088;7.658;2023-12-28T12:59:26;27.63;;;15.65;;
74799;SDS011;63326;45.088;7.658;2023-12-28T13:01:53;17.83;;;12.02;;
74799;SDS011;63326;45.088;7.658;2023-12-28T13:04:20;20.75;;;13.77;;
74799;SDS011;63326;45.088;7.658;2023-12-28T13:06:48;21.15;;;12.80;;
74799;SDS011;63326;45.088;7.658;2023-12-28T13:09:15;21.40;;;12.18;;
74799;SDS011;63326;45.088;7.658;2023-12-28T13:11:42;21.85;;;13.40;;
74799;SDS011;63326;45.088;7.658;2023-12-28T13:14:09;23.88;;;12.65;;
74799;SDS011;63326;45.088;7.658;2023-12-28T13:16:35;24.20;;;12.43;;
74799;SDS011;63326;45.088;7.658;2023-12-28T13:19:05;20.58;;;10.60;;
74799;SDS011;63326;45.088;7.658;2023-12-28T13:21:32;20.40;;;11.25;;
74799;SDS011;63326;45.088;7.658;2023-12-28T13:24:01;17.88;;;10.35;;
74799;SDS011;63326;45.088;7.658;2023-12-28T13:26:29;22.42;;;12.70;;
74799;SDS011;63326;45.088;7.658;2023-12-28T13:28:57;20.90;;;11.48;;
74799;SDS011;63326;45.088;7.658;2023-12-28T13:31:24;25.13;;;10.57;;
74799;SDS011;63326;45.088;7.658;2023-12-28T13:33:52;22.17;;;11.32;;
74799;SDS011;63326;45.088;7.658;2023-12-28T13:36:19;15.68;;;10.13;;
74799;SDS011;63326;45.088;7.658;2023-12-28T13:38:46;18.95;;;9.80;;
74799;SDS011;63326;45.088;7.658;2023-12-28T13:41:14;17.85;;;10.25;;
74799;SDS011;63326;45.088;7.658;2023-12-28T13:43:41;18.67;;;9.68;;
74799;SDS011;63326;45.088;7.658;2023-12-28T13:46:08;18.25;;;9.63;;
74799;SDS011;63326;45.088;7.658;2023-12-28T13:48:35;18.35;;;10.77;;
74799;SDS011;63326;45.088;7.658;2023-12-28T13:51:02;18.25;;;9.10;;
74799;SDS011;63326;45.088;7.658;2023-12-28T13:53:29;16.08;;;9.45;;
74799;SDS011;63326;45.088;7.658;2023-12-28T13:55:55;16.45;;;9.35;;
74799;SDS011;63326;45.088;7.658;2023-12-28T13:58:22;16.95;;;10.50;;
74799;SDS011;63326;45.088;7.658;2023-12-28T14:00:49;17.52;;;9.57;;
74799;SDS011;63326;45.088;7.658;2023-12-28T14:03:15;19.08;;;8.90;;
74799;SDS011;63326;45.088;7.658;2023-12-28T14:05:42;16.63;;;8.95;;
74799;SDS011;63326;45.088;7.658;2023-12-28T14:08:09;17.13;;;9.32;;
74799;SDS011;63326;45.088;7.658;2023-12-28T14:10:36;15.50;;;9.25;;
74799;SDS011;63326;45.088;7.658;2023-12-28T14:13:04;19.50;;;8.98;;
74799;SDS011;63326;45.088;7.658;2023-12-28T14:15:32;19.45;;;10.80;;
74799;SDS011;63326;45.088;7.658;2023-12-28T14:17:58;20.33;;;8.70;;
74799;SDS011;63326;45.088;7.658;2023-12-28T14:20:25;19.30;;;9.50;;
74799;SDS011;63326;45.088;7.658;2023-12-28T14:22:54;15.38;;;8.93;;
74799;SDS011;63326;45.088;7.658;2023-12-28T14:25:21;16.92;;;8.57;;
74799;SDS011;63326;45.088;7.658;2023-12-28T14:27:48;14.40;;;8.40;;
74799;SDS011;63326;45.088;7.658;2023-12-28T14:30:15;14.05;;;9.73;;
74799;SDS011;63326;45.088;7.658;2023-12-28T14:32:42;17.13;;;9.18;;
74799;SDS011;63326;45.088;7.658;2023-12-28T14:35:09;16.02;;;9.52;;
74799;SDS011;63326;45.088;7.658;2023-12-28T14:37:36;17.92;;;11.00;;
74799;SDS011;63326;45.088;7.658;2023-12-28T14:40:04;11.43;;;8.57;;
74799;SDS011;63326;45.088;7.658;2023-12-28T14:42:33;17.45;;;9.32;;